createdAt,value
2019-04-30T00:00:34.749Z,11.50
2019-04-30T00:01:43.582Z,11.50
2019-04-30T00:02:35.651Z,11.60
2019-04-30T00:03:25.035Z,11.60
2019-04-30T00:04:17.527Z,11.60
2019-04-30T00:05:05.482Z,11.60
2019-04-30T00:05:53.863Z,11.60
2019-04-30T00:06:40.001Z,11.60
2019-04-30T00:07:26.564Z,11.60
2019-04-30T00:08:13.207Z,11.60
2019-04-30T00:08:59.594Z,11.60
2019-04-30T00:09:49.248Z,11.60
2019-04-30T00:10:41.058Z,11.50
2019-04-30T00:11:25.131Z,11.50
2019-04-30T00:12:11.859Z,11.60
2019-04-30T00:12:57.896Z,11.50
2019-04-30T00:13:45.930Z,11.50
2019-04-30T00:14:36.848Z,11.50
2019-04-30T00:15:19.807Z,11.50
2019-04-30T00:16:05.512Z,11.40
2019-04-30T00:16:51.667Z,11.40
2019-04-30T00:17:37.820Z,11.40
2019-04-30T00:18:25.467Z,11.50
2019-04-30T00:19:17.871Z,11.40
2019-04-30T00:20:00.101Z,11.40
2019-04-30T00:20:47.060Z,11.40
2019-04-30T00:21:32.967Z,11.40
2019-04-30T00:22:31.096Z,11.40
2019-04-30T00:23:07.296Z,11.50
2019-04-30T00:23:53.471Z,11.40
2019-04-30T00:24:39.867Z,11.40
2019-04-30T00:25:28.662Z,11.40
2019-04-30T00:26:16.974Z,11.40
2019-04-30T00:27:05.000Z,11.40
2019-04-30T00:27:51.397Z,11.40
2019-04-30T00:28:39.419Z,11.40
2019-04-30T00:29:30.203Z,11.40
2019-04-30T00:30:15.335Z,11.40
2019-04-30T00:31:01.179Z,11.40
2019-04-30T00:31:47.291Z,11.40
2019-04-30T00:32:38.178Z,11.50
2019-04-30T00:33:22.445Z,11.40
2019-04-30T00:34:08.347Z,11.40
2019-04-30T00:34:55.641Z,11.40
2019-04-30T00:35:42.445Z,11.50
2019-04-30T00:36:34.065Z,11.50
2019-04-30T00:37:18.751Z,11.50
2019-04-30T00:38:05.632Z,11.50
2019-04-30T00:38:51.810Z,11.40
2019-04-30T00:39:44.299Z,11.40
2019-04-30T00:40:30.237Z,11.50
2019-04-30T00:41:16.711Z,11.50
2019-04-30T00:42:04.924Z,11.40
2019-04-30T00:42:51.108Z,11.50
2019-04-30T00:43:37.803Z,11.40
2019-04-30T00:44:28.194Z,11.50
2019-04-30T00:45:13.031Z,11.50
2019-04-30T00:45:59.133Z,11.50
2019-04-30T00:46:48.011Z,11.50
2019-04-30T00:47:35.076Z,11.50
2019-04-30T00:48:29.517Z,11.50
2019-04-30T00:49:15.843Z,11.50
2019-04-30T00:50:00.100Z,11.40
2019-04-30T00:50:45.745Z,11.30
2019-04-30T00:51:31.894Z,11.30
2019-04-30T00:52:17.567Z,11.30
2019-04-30T00:53:05.936Z,11.40
2019-04-30T00:53:52.589Z,11.40
2019-04-30T00:54:38.732Z,11.40
2019-04-30T00:55:24.966Z,11.30
2019-04-30T00:56:11.051Z,11.30
2019-04-30T00:57:03.599Z,11.30
2019-04-30T00:57:47.448Z,11.40
2019-04-30T00:58:32.876Z,11.40
2019-04-30T00:59:18.656Z,11.40
2019-04-30T01:00:08.380Z,11.50
2019-04-30T01:01:09.017Z,11.50
2019-04-30T01:02:20.201Z,11.40
2019-04-30T01:03:09.346Z,11.40
2019-04-30T01:03:59.618Z,11.40
2019-04-30T01:04:48.236Z,11.30
2019-04-30T01:05:35.378Z,11.30
2019-04-30T01:06:26.879Z,11.40
2019-04-30T01:07:10.350Z,11.40
2019-04-30T01:07:56.666Z,11.40
2019-04-30T01:08:46.157Z,11.40
2019-04-30T01:09:32.440Z,11.50
2019-04-30T01:10:19.613Z,11.40
2019-04-30T01:11:09.557Z,11.40
2019-04-30T01:11:55.480Z,11.50
2019-04-30T01:12:47.022Z,11.50
2019-04-30T01:13:30.415Z,11.50
2019-04-30T01:14:16.402Z,11.40
2019-04-30T01:15:06.536Z,11.40
2019-04-30T01:15:52.636Z,11.30
2019-04-30T01:16:39.473Z,11.30
2019-04-30T01:17:25.722Z,11.30
2019-04-30T01:18:11.438Z,11.30
2019-04-30T01:18:58.592Z,11.30
2019-04-30T01:19:45.972Z,11.30
2019-04-30T01:20:40.531Z,11.40
2019-04-30T01:21:26.308Z,11.40
2019-04-30T01:22:12.586Z,11.40
2019-04-30T01:22:58.753Z,11.40
2019-04-30T01:23:51.779Z,11.40
2019-04-30T01:24:33.026Z,11.40
2019-04-30T01:25:20.710Z,11.40
2019-04-30T01:26:08.640Z,11.40
2019-04-30T01:26:54.556Z,11.40
2019-04-30T01:27:45.838Z,11.30
2019-04-30T01:28:28.971Z,11.30
2019-04-30T01:29:15.173Z,11.30
2019-04-30T01:30:02.095Z,11.30
2019-04-30T01:30:49.558Z,11.30
2019-04-30T01:31:37.416Z,11.30
2019-04-30T01:32:23.219Z,11.30
2019-04-30T01:33:09.832Z,11.30
2019-04-30T01:33:56.317Z,11.30
2019-04-30T01:34:44.269Z,11.30
2019-04-30T01:35:32.687Z,11.30
2019-04-30T01:36:19.309Z,11.30
2019-04-30T01:37:05.614Z,11.30
2019-04-30T01:37:51.627Z,11.30
2019-04-30T01:38:40.039Z,11.30
2019-04-30T01:39:31.576Z,11.30
2019-04-30T01:40:15.928Z,11.30
2019-04-30T01:41:02.094Z,11.30
2019-04-30T01:41:48.851Z,11.30
2019-04-30T01:42:35.187Z,11.30
2019-04-30T01:43:30.565Z,11.40
2019-04-30T01:44:12.162Z,11.40
2019-04-30T01:44:58.987Z,11.40
2019-04-30T01:45:44.975Z,11.40
2019-04-30T01:46:31.127Z,11.40
2019-04-30T01:47:21.546Z,11.50
2019-04-30T01:48:08.681Z,11.40
2019-04-30T01:48:52.586Z,11.40
2019-04-30T01:49:42.670Z,11.40
2019-04-30T01:50:26.431Z,11.40
2019-04-30T01:51:17.773Z,11.30
2019-04-30T01:52:02.422Z,11.30
2019-04-30T01:52:52.370Z,11.30
2019-04-30T01:53:38.901Z,11.30
2019-04-30T01:54:25.427Z,11.30
2019-04-30T01:55:12.034Z,11.20
2019-04-30T01:56:19.084Z,11.30
2019-04-30T01:57:31.246Z,11.30
2019-04-30T01:58:33.371Z,11.30
2019-04-30T01:59:23.232Z,11.30
2019-04-30T02:00:22.870Z,11.30
2019-04-30T02:01:13.776Z,11.30
2019-04-30T02:02:01.748Z,11.30
2019-04-30T02:02:49.536Z,11.30
2019-04-30T02:03:40.072Z,11.40
2019-04-30T02:04:26.503Z,11.40
2019-04-30T02:05:13.028Z,11.40
2019-04-30T02:05:59.658Z,11.40
2019-04-30T02:06:46.247Z,11.40
2019-04-30T02:07:32.596Z,11.40
2019-04-30T02:08:19.639Z,11.50
2019-04-30T02:09:06.495Z,11.40
2019-04-30T02:09:52.879Z,11.40
2019-04-30T02:10:40.392Z,11.40
2019-04-30T02:11:28.745Z,11.30
2019-04-30T02:12:14.949Z,11.30
2019-04-30T02:13:01.351Z,11.20
2019-04-30T02:13:49.155Z,11.30
2019-04-30T02:14:35.856Z,11.20
2019-04-30T02:15:22.348Z,11.30
2019-04-30T02:16:08.717Z,11.30
2019-04-30T02:16:54.841Z,11.20
2019-04-30T02:17:40.918Z,11.20
2019-04-30T02:18:26.726Z,11.30
2019-04-30T02:19:12.770Z,11.30
2019-04-30T02:19:59.295Z,11.30
2019-04-30T02:20:45.432Z,11.20
2019-04-30T02:21:33.316Z,11.20
2019-04-30T02:22:19.754Z,11.20
2019-04-30T02:23:05.619Z,11.30
2019-04-30T02:23:51.598Z,11.30
2019-04-30T02:24:38.677Z,11.30
2019-04-30T02:25:24.986Z,11.30
2019-04-30T02:26:11.048Z,11.20
2019-04-30T02:27:00.613Z,11.20
2019-04-30T02:27:48.949Z,11.20
2019-04-30T02:28:35.044Z,11.20
2019-04-30T02:29:21.103Z,11.20
2019-04-30T02:30:11.228Z,11.30
2019-04-30T02:30:56.552Z,11.30
2019-04-30T02:31:43.072Z,11.20
2019-04-30T02:32:30.381Z,11.30
2019-04-30T02:33:19.523Z,11.20
2019-04-30T02:34:14.268Z,11.20
2019-04-30T02:35:10.604Z,11.20
2019-04-30T02:36:16.429Z,11.30
2019-04-30T02:37:20.862Z,11.30
2019-04-30T02:38:15.331Z,11.30
2019-04-30T02:39:02.731Z,11.30
2019-04-30T02:39:50.279Z,11.30
2019-04-30T02:40:39.327Z,11.30
2019-04-30T02:41:29.302Z,11.30
2019-04-30T02:42:16.729Z,11.30
2019-04-30T02:43:03.202Z,11.30
2019-04-30T02:43:52.097Z,11.30
2019-04-30T02:44:40.988Z,11.20
2019-04-30T02:45:29.861Z,11.20
2019-04-30T02:46:19.055Z,11.20
2019-04-30T02:47:05.899Z,11.20
2019-04-30T02:47:52.790Z,11.20
2019-04-30T02:48:40.098Z,11.20
2019-04-30T02:49:30.277Z,11.20
2019-04-30T02:50:21.669Z,11.20
2019-04-30T02:51:09.933Z,11.20
2019-04-30T02:51:55.912Z,11.20
2019-04-30T02:52:42.550Z,11.20
2019-04-30T02:54:23.299Z,11.20
2019-04-30T02:55:11.423Z,11.20
2019-04-30T02:55:59.508Z,11.20
2019-04-30T02:56:50.699Z,11.20
2019-04-30T02:57:36.549Z,11.20
2019-04-30T02:58:22.797Z,11.10
2019-04-30T02:59:10.346Z,11.10
2019-04-30T03:00:15.485Z,11.20
2019-04-30T03:01:01.608Z,11.20
2019-04-30T03:01:50.246Z,11.20
2019-04-30T03:02:35.792Z,11.20
2019-04-30T03:03:25.114Z,11.20
2019-04-30T03:04:10.472Z,11.10
2019-04-30T03:04:56.849Z,11.10
2019-04-30T03:05:43.087Z,11.10
2019-04-30T03:06:30.419Z,11.10
2019-04-30T03:07:19.269Z,11.00
2019-04-30T03:08:04.568Z,11.10
2019-04-30T03:08:51.033Z,11.10
2019-04-30T03:09:39.379Z,11.10
2019-04-30T03:10:25.453Z,11.10
2019-04-30T03:11:11.771Z,11.20
2019-04-30T03:12:00.219Z,11.20
2019-04-30T03:12:45.561Z,11.20
2019-04-30T03:13:31.698Z,11.20
2019-04-30T03:14:20.088Z,11.20
2019-04-30T03:15:09.645Z,11.20
2019-04-30T03:15:55.234Z,11.20
2019-04-30T03:16:53.222Z,11.20
2019-04-30T03:17:46.430Z,11.20
2019-04-30T03:18:51.482Z,11.30
2019-04-30T03:20:03.578Z,11.20
2019-04-30T03:21:05.135Z,11.20
2019-04-30T03:21:55.151Z,11.20
2019-04-30T03:22:41.164Z,11.20
2019-04-30T03:23:29.397Z,11.20
2019-04-30T03:24:15.391Z,11.20
2019-04-30T03:25:01.888Z,11.20
2019-04-30T03:25:50.153Z,11.20
2019-04-30T03:26:35.935Z,11.20
2019-04-30T03:27:24.849Z,11.10
2019-04-30T03:28:10.060Z,11.10
2019-04-30T03:28:55.810Z,11.10
2019-04-30T03:29:42.128Z,11.10
2019-04-30T03:30:32.050Z,11.20
2019-04-30T03:31:16.358Z,11.20
2019-04-30T03:32:03.706Z,11.20
2019-04-30T03:32:56.017Z,11.20
2019-04-30T03:33:41.926Z,11.20
2019-04-30T03:34:26.518Z,11.20
2019-04-30T03:35:13.509Z,11.20
2019-04-30T03:36:02.226Z,11.10
2019-04-30T03:36:50.197Z,11.10
2019-04-30T03:37:35.037Z,11.10
2019-04-30T03:38:21.184Z,11.10
2019-04-30T03:39:10.389Z,11.10
2019-04-30T03:39:55.215Z,11.20
2019-04-30T03:40:41.353Z,11.10
2019-04-30T03:41:27.114Z,11.10
2019-04-30T03:42:15.275Z,11.00
2019-04-30T03:43:04.337Z,11.10
2019-04-30T03:43:50.679Z,11.00
2019-04-30T03:44:39.707Z,11.10
2019-04-30T03:45:24.513Z,11.10
2019-04-30T03:46:11.073Z,11.10
2019-04-30T03:46:59.346Z,11.10
2019-04-30T03:47:45.521Z,11.10
2019-04-30T03:48:32.131Z,11.10
2019-04-30T03:49:20.265Z,11.10
2019-04-30T03:50:09.155Z,11.10
2019-04-30T03:50:56.913Z,11.00
2019-04-30T03:51:42.978Z,11.00
2019-04-30T03:52:29.512Z,11.00
2019-04-30T03:53:15.967Z,11.00
2019-04-30T03:54:02.878Z,11.10
2019-04-30T03:54:49.520Z,11.10
2019-04-30T03:55:39.967Z,11.10
2019-04-30T03:56:26.484Z,11.10
2019-04-30T03:57:12.744Z,11.00
2019-04-30T03:58:00.149Z,11.10
2019-04-30T03:58:46.214Z,11.00
2019-04-30T03:59:32.327Z,11.00
2019-04-30T04:00:36.376Z,11.00
2019-04-30T04:01:36.473Z,11.00
2019-04-30T04:02:40.859Z,11.00
2019-04-30T04:03:29.195Z,11.00
2019-04-30T04:04:20.555Z,11.00
2019-04-30T04:05:26.187Z,11.00
2019-04-30T04:06:22.398Z,11.10
2019-04-30T04:07:39.355Z,11.10
2019-04-30T04:08:43.145Z,11.10
2019-04-30T04:09:32.080Z,11.00
2019-04-30T04:10:30.398Z,11.00
2019-04-30T04:11:24.997Z,11.00
2019-04-30T04:12:23.884Z,11.00
2019-04-30T04:13:10.416Z,10.90
2019-04-30T04:13:59.514Z,10.90
2019-04-30T04:14:44.764Z,10.90
2019-04-30T04:15:31.297Z,10.90
2019-04-30T04:16:19.502Z,10.90
2019-04-30T04:17:05.357Z,10.90
2019-04-30T04:17:51.915Z,10.90
2019-04-30T04:18:40.243Z,10.90
2019-04-30T04:19:29.125Z,10.90
2019-04-30T04:20:15.228Z,10.90
2019-04-30T04:21:11.684Z,10.90
2019-04-30T04:21:52.503Z,10.90
2019-04-30T04:22:40.375Z,11.00
2019-04-30T04:23:32.327Z,11.00
2019-04-30T04:24:14.314Z,11.00
2019-04-30T04:25:00.863Z,11.00
2019-04-30T04:25:49.897Z,10.90
2019-04-30T04:26:35.336Z,11.00
2019-04-30T04:27:21.878Z,10.90
2019-04-30T04:28:10.102Z,10.90
2019-04-30T04:28:59.190Z,10.90
2019-04-30T04:29:44.753Z,10.90
2019-04-30T04:30:31.218Z,10.90
2019-04-30T04:31:19.264Z,10.90
2019-04-30T04:32:05.500Z,10.90
2019-04-30T04:32:52.070Z,10.90
2019-04-30T04:33:39.570Z,10.90
2019-04-30T04:34:25.902Z,11.00
2019-04-30T04:35:13.066Z,10.90
2019-04-30T04:35:59.851Z,11.00
2019-04-30T04:36:46.146Z,11.00
2019-04-30T04:37:33.680Z,11.00
2019-04-30T04:38:20.578Z,11.00
2019-04-30T04:39:09.792Z,10.90
2019-04-30T04:39:55.892Z,10.90
2019-04-30T04:40:42.381Z,11.00
2019-04-30T04:41:31.901Z,11.00
2019-04-30T04:42:19.361Z,10.90
2019-04-30T04:43:06.068Z,10.90
2019-04-30T04:43:52.428Z,10.90
2019-04-30T04:44:39.943Z,10.90
2019-04-30T04:45:25.849Z,10.90
2019-04-30T04:46:12.203Z,10.90
2019-04-30T04:47:00.153Z,10.90
2019-04-30T04:47:46.524Z,10.90
2019-04-30T04:48:33.266Z,10.90
2019-04-30T04:49:20.571Z,10.90
2019-04-30T04:50:10.047Z,10.90
2019-04-30T04:50:56.400Z,11.00
2019-04-30T04:51:42.935Z,11.00
2019-04-30T04:52:31.420Z,11.00
2019-04-30T04:53:19.735Z,11.00
2019-04-30T04:54:05.940Z,11.00
2019-04-30T04:54:52.270Z,11.00
2019-04-30T04:55:40.055Z,11.00
2019-04-30T04:56:26.482Z,11.00
2019-04-30T04:57:17.999Z,11.00
2019-04-30T04:58:01.204Z,11.00
2019-04-30T04:58:49.977Z,11.00
2019-04-30T04:59:35.852Z,11.10
2019-04-30T05:00:23.856Z,11.00
2019-04-30T05:01:11.845Z,11.00
2019-04-30T05:02:00.288Z,11.00
2019-04-30T05:02:59.374Z,11.00
2019-04-30T05:03:45.401Z,11.00
2019-04-30T05:04:31.678Z,11.00
2019-04-30T05:05:19.399Z,11.00
2019-04-30T05:06:05.781Z,11.00
2019-04-30T05:06:51.598Z,11.00
2019-04-30T05:07:39.737Z,11.00
2019-04-30T05:08:25.724Z,11.00
2019-04-30T05:09:12.111Z,11.00
2019-04-30T05:10:00.598Z,11.00
2019-04-30T05:10:45.706Z,11.00
2019-04-30T05:11:32.424Z,11.00
2019-04-30T05:12:19.149Z,11.00
2019-04-30T05:13:05.918Z,11.10
2019-04-30T05:13:53.615Z,11.10
2019-04-30T05:14:39.960Z,11.10
2019-04-30T05:15:26.686Z,11.10
2019-04-30T05:16:13.258Z,11.10
2019-04-30T05:17:00.155Z,11.10
2019-04-30T05:17:49.286Z,11.10
2019-04-30T05:18:35.849Z,11.10
2019-04-30T05:19:21.984Z,11.10
2019-04-30T05:20:14.352Z,11.10
2019-04-30T05:21:03.602Z,11.10
2019-04-30T05:21:51.702Z,11.20
2019-04-30T05:22:38.942Z,11.20
2019-04-30T05:23:25.635Z,11.20
2019-04-30T05:24:11.937Z,11.20
2019-04-30T05:24:58.870Z,11.20
2019-04-30T05:25:45.605Z,11.20
2019-04-30T05:26:32.269Z,11.20
2019-04-30T05:27:19.799Z,11.20
2019-04-30T05:28:08.633Z,11.10
2019-04-30T05:28:55.435Z,11.10
2019-04-30T05:29:41.537Z,11.20
2019-04-30T05:30:29.534Z,11.20
2019-04-30T05:31:15.755Z,11.20
2019-04-30T05:32:02.480Z,11.20
2019-04-30T05:32:50.465Z,11.20
2019-04-30T05:33:36.853Z,11.30
2019-04-30T05:34:23.595Z,11.30
2019-04-30T05:35:09.877Z,11.30
2019-04-30T05:35:56.610Z,11.30
2019-04-30T05:36:43.755Z,11.40
2019-04-30T05:37:29.963Z,11.40
2019-04-30T05:38:15.971Z,11.30
2019-04-30T05:39:02.287Z,11.30
2019-04-30T05:39:48.917Z,11.40
2019-04-30T05:40:34.910Z,11.40
2019-04-30T05:41:20.933Z,11.30
2019-04-30T05:42:08.798Z,11.40
2019-04-30T05:42:54.898Z,11.30
2019-04-30T05:43:40.965Z,11.40
2019-04-30T05:44:26.986Z,11.40
2019-04-30T05:45:13.452Z,11.40
2019-04-30T05:45:59.588Z,11.30
2019-04-30T05:46:45.855Z,11.30
2019-04-30T05:47:32.182Z,11.40
2019-04-30T05:48:18.588Z,11.30
2019-04-30T05:49:05.052Z,11.30
2019-04-30T05:49:51.162Z,11.30
2019-04-30T05:50:39.151Z,11.40
2019-04-30T05:51:26.213Z,11.40
2019-04-30T05:52:12.548Z,11.40
2019-04-30T05:52:59.213Z,11.40
2019-04-30T05:53:45.475Z,11.50
2019-04-30T05:54:31.714Z,11.50
2019-04-30T05:55:19.837Z,11.40
2019-04-30T05:56:06.739Z,11.40
2019-04-30T05:56:53.055Z,11.40
2019-04-30T05:57:52.571Z,11.50
2019-04-30T05:58:29.776Z,11.50
2019-04-30T05:59:20.395Z,11.40
2019-04-30T06:00:05.949Z,11.40
2019-04-30T06:00:52.064Z,11.40
2019-04-30T06:01:39.483Z,11.40
2019-04-30T06:02:25.826Z,11.50
2019-04-30T06:03:24.555Z,11.50
2019-04-30T06:04:00.921Z,11.50
2019-04-30T06:04:48.660Z,11.60
2019-04-30T06:05:34.571Z,11.60
2019-04-30T06:06:20.369Z,11.60
2019-04-30T06:07:08.590Z,11.60
2019-04-30T06:07:55.471Z,11.70
2019-04-30T06:09:03.987Z,11.70
2019-04-30T06:09:48.623Z,11.60
2019-04-30T06:10:43.429Z,11.60
2019-04-30T06:11:49.201Z,11.50
2019-04-30T06:12:49.470Z,11.60
2019-04-30T06:14:01.094Z,11.70
2019-04-30T06:14:54.203Z,11.60
2019-04-30T06:15:52.370Z,11.60
2019-04-30T06:16:39.343Z,11.70
2019-04-30T06:17:29.384Z,11.70
2019-04-30T06:18:15.654Z,11.70
2019-04-30T06:19:01.758Z,11.80
2019-04-30T06:19:48.771Z,11.80
2019-04-30T06:20:35.750Z,11.90
2019-04-30T06:21:21.968Z,12.00
2019-04-30T06:22:10.724Z,12.00
2019-04-30T06:22:56.620Z,12.10
2019-04-30T06:23:42.971Z,12.10
2019-04-30T06:24:30.255Z,12.20
2019-04-30T06:25:27.191Z,12.30
2019-04-30T06:26:09.624Z,12.30
2019-04-30T06:26:52.140Z,12.40
2019-04-30T06:27:38.787Z,12.60
2019-04-30T06:28:25.214Z,12.60
2019-04-30T06:29:11.419Z,12.70
2019-04-30T06:29:58.918Z,12.70
2019-04-30T06:30:45.605Z,12.80
2019-04-30T06:31:39.708Z,12.80
2019-04-30T06:32:23.378Z,12.80
2019-04-30T06:33:11.824Z,12.90
2019-04-30T06:33:58.632Z,13.00
2019-04-30T06:34:46.103Z,13.00
2019-04-30T06:35:32.029Z,13.10
2019-04-30T06:36:19.196Z,13.20
2019-04-30T06:37:05.229Z,13.20
2019-04-30T06:37:51.552Z,13.30
2019-04-30T06:38:38.665Z,13.30
2019-04-30T06:39:25.044Z,13.30
2019-04-30T06:40:11.767Z,13.40
2019-04-30T06:40:58.884Z,13.50
2019-04-30T06:41:45.434Z,13.60
2019-04-30T06:42:32.224Z,13.60
2019-04-30T06:43:20.407Z,13.60
2019-04-30T06:44:06.534Z,13.70
2019-04-30T06:44:52.954Z,13.80
2019-04-30T06:45:39.320Z,13.80
2019-04-30T06:46:25.179Z,13.80
2019-04-30T06:47:12.871Z,14.00
2019-04-30T06:48:00.999Z,14.10
2019-04-30T06:48:50.889Z,14.10
2019-04-30T06:49:39.110Z,14.10
2019-04-30T06:50:24.912Z,14.30
2019-04-30T06:51:11.275Z,14.40
2019-04-30T06:51:58.824Z,14.30
2019-04-30T06:52:54.154Z,14.20
2019-04-30T06:53:33.625Z,14.30
2019-04-30T06:54:20.070Z,14.30
2019-04-30T06:55:06.237Z,14.20
2019-04-30T06:55:52.471Z,14.20
2019-04-30T06:56:38.917Z,14.40
2019-04-30T06:57:24.855Z,14.40
2019-04-30T06:58:15.108Z,14.40
2019-04-30T06:58:59.087Z,14.50
2019-04-30T06:59:45.027Z,14.60
2019-04-30T07:00:39.988Z,14.60
2019-04-30T07:01:26.480Z,14.70
2019-04-30T07:02:12.359Z,14.70
2019-04-30T07:02:59.089Z,14.70
2019-04-30T07:03:45.087Z,14.70
2019-04-30T07:04:32.072Z,14.80
2019-04-30T07:05:18.882Z,14.80
2019-04-30T07:06:05.516Z,14.90
2019-04-30T07:06:52.440Z,15.60
2019-04-30T07:07:41.758Z,16.00
2019-04-30T07:08:55.986Z,15.90
2019-04-30T07:09:58.340Z,15.70
2019-04-30T07:10:53.096Z,15.50
2019-04-30T07:11:33.423Z,15.30
2019-04-30T07:12:25.627Z,15.30
2019-04-30T07:13:19.031Z,15.20
2019-04-30T07:14:09.698Z,15.00
2019-04-30T07:14:56.008Z,15.30
2019-04-30T07:15:42.379Z,15.80
2019-04-30T07:16:29.856Z,15.80
2019-04-30T07:17:15.954Z,15.80
2019-04-30T07:18:02.701Z,15.80
2019-04-30T07:18:49.035Z,15.80
2019-04-30T07:19:51.860Z,16.10
2019-04-30T07:20:23.401Z,16.20
2019-04-30T07:21:09.788Z,16.00
2019-04-30T07:21:55.484Z,15.90
2019-04-30T07:22:49.817Z,15.70
2019-04-30T07:23:29.905Z,15.60
2019-04-30T07:24:16.148Z,15.50
2019-04-30T07:25:02.423Z,15.30
2019-04-30T07:25:51.383Z,15.20
2019-04-30T07:26:38.813Z,15.20
2019-04-30T07:27:25.580Z,15.20
2019-04-30T07:28:12.116Z,15.10
2019-04-30T07:29:01.964Z,15.00
2019-04-30T07:29:47.198Z,15.00
2019-04-30T07:30:33.735Z,14.90
2019-04-30T07:31:20.196Z,14.90
2019-04-30T07:32:09.230Z,14.90
2019-04-30T07:32:54.868Z,15.00
2019-04-30T07:33:41.533Z,14.90
2019-04-30T07:34:30.276Z,15.00
2019-04-30T07:35:19.322Z,15.00
2019-04-30T07:36:04.977Z,15.10
2019-04-30T07:37:10.451Z,15.20
2019-04-30T07:37:39.308Z,15.20
2019-04-30T07:38:25.327Z,15.30
2019-04-30T07:39:11.539Z,15.50
2019-04-30T07:39:58.893Z,16.80
2019-04-30T07:40:45.697Z,16.80
2019-04-30T07:41:32.167Z,16.50
2019-04-30T07:42:19.267Z,16.40
2019-04-30T07:43:05.867Z,16.20
2019-04-30T07:43:52.501Z,16.20
2019-04-30T07:44:39.530Z,16.30
2019-04-30T07:45:25.935Z,18.30
2019-04-30T07:46:12.315Z,20.00
2019-04-30T07:46:59.377Z,21.90
2019-04-30T07:47:46.361Z,23.60
2019-04-30T07:48:32.688Z,25.00
2019-04-30T07:49:20.576Z,25.90
2019-04-30T07:50:09.938Z,26.60
2019-04-30T07:50:55.226Z,25.90
2019-04-30T07:51:42.475Z,24.00
2019-04-30T07:52:33.275Z,22.50
2019-04-30T07:53:18.762Z,21.30
2019-04-30T07:54:05.083Z,20.70
2019-04-30T07:54:51.951Z,22.80
2019-04-30T07:55:39.306Z,24.20
2019-04-30T07:56:29.271Z,25.60
2019-04-30T07:57:13.052Z,26.60
2019-04-30T07:57:59.517Z,25.80
2019-04-30T07:58:45.503Z,24.10
2019-04-30T07:59:31.257Z,22.60
2019-04-30T08:00:18.847Z,21.60
2019-04-30T08:01:04.749Z,20.90
2019-04-30T08:02:04.140Z,22.10
2019-04-30T08:02:45.168Z,24.40
2019-04-30T08:03:56.427Z,26.00
2019-04-30T08:04:54.089Z,27.30
2019-04-30T08:05:42.020Z,28.30
2019-04-30T08:06:31.132Z,28.90
2019-04-30T08:07:16.534Z,29.20
2019-04-30T08:08:17.691Z,29.30
2019-04-30T08:08:56.952Z,29.40
2019-04-30T08:09:42.086Z,29.50
2019-04-30T08:10:26.965Z,29.50
2019-04-30T08:11:23.797Z,28.50
2019-04-30T08:12:01.685Z,26.30
2019-04-30T08:12:50.583Z,25.80
2019-04-30T08:13:36.577Z,25.20
2019-04-30T08:14:24.674Z,24.80
2019-04-30T08:15:11.012Z,25.60
2019-04-30T08:15:56.825Z,26.30
2019-04-30T08:16:43.029Z,26.70
2019-04-30T08:17:29.331Z,27.10
2019-04-30T08:18:15.517Z,27.70
2019-04-30T08:19:01.828Z,28.20
2019-04-30T08:19:48.967Z,28.60
2019-04-30T08:20:35.045Z,28.80
2019-04-30T08:21:21.445Z,28.60
2019-04-30T08:22:09.569Z,28.60
2019-04-30T08:22:55.580Z,27.50
2019-04-30T08:23:41.868Z,25.90
2019-04-30T08:24:29.164Z,24.20
2019-04-30T08:25:15.626Z,22.40
2019-04-30T08:26:02.295Z,21.70
2019-04-30T08:26:49.458Z,21.60
2019-04-30T08:27:35.897Z,21.80
2019-04-30T08:28:22.228Z,22.20
2019-04-30T08:29:09.560Z,22.20
2019-04-30T08:29:55.970Z,22.50
2019-04-30T08:30:42.499Z,22.10
2019-04-30T08:31:29.339Z,23.00
2019-04-30T08:32:15.324Z,24.70
2019-04-30T08:33:01.616Z,26.00
2019-04-30T08:33:49.049Z,26.60
2019-04-30T08:34:35.317Z,27.40
2019-04-30T08:35:21.451Z,27.90
2019-04-30T08:36:09.443Z,27.90
2019-04-30T08:36:56.348Z,28.10
2019-04-30T08:37:42.794Z,27.70
2019-04-30T08:38:30.062Z,27.20
2019-04-30T08:39:16.070Z,26.60
2019-04-30T08:40:03.526Z,25.40
2019-04-30T08:40:56.173Z,24.60
2019-04-30T08:41:39.265Z,23.60
2019-04-30T08:42:33.274Z,23.20
2019-04-30T08:43:13.159Z,24.20
2019-04-30T08:43:59.949Z,25.90
2019-04-30T08:44:48.426Z,26.60
2019-04-30T08:45:34.842Z,25.30
2019-04-30T08:46:21.086Z,25.40
2019-04-30T08:47:08.645Z,24.70
2019-04-30T08:47:55.008Z,23.90
2019-04-30T08:48:50.302Z,22.90
2019-04-30T08:49:30.533Z,23.50
2019-04-30T08:50:19.481Z,24.10
2019-04-30T08:51:05.493Z,25.70
2019-04-30T08:51:51.458Z,27.10
2019-04-30T08:52:39.365Z,27.80
2019-04-30T08:53:29.419Z,27.80
2019-04-30T08:54:13.237Z,28.50
2019-04-30T08:55:12.746Z,28.10
2019-04-30T08:55:49.099Z,27.30
2019-04-30T08:56:34.759Z,27.80
2019-04-30T08:57:21.317Z,28.60
2019-04-30T08:58:12.005Z,28.60
2019-04-30T08:58:55.012Z,28.70
2019-04-30T08:59:41.141Z,29.00
2019-04-30T09:00:29.585Z,29.30
2019-04-30T09:01:16.572Z,29.40
2019-04-30T09:02:15.368Z,29.70
2019-04-30T09:02:51.417Z,29.80
2019-04-30T09:03:39.131Z,29.10
2019-04-30T09:04:29.100Z,29.10
2019-04-30T09:05:21.407Z,29.60
2019-04-30T09:06:33.036Z,30.10
2019-04-30T09:07:19.665Z,30.40
2019-04-30T09:08:06.517Z,30.00
2019-04-30T09:08:59.334Z,30.50
2019-04-30T09:09:45.956Z,30.80
2019-04-30T09:10:32.207Z,31.00
2019-04-30T09:11:25.292Z,31.00
2019-04-30T09:12:06.547Z,30.80
2019-04-30T09:12:52.835Z,29.90
2019-04-30T09:13:39.279Z,29.40
2019-04-30T09:14:25.287Z,29.50
2019-04-30T09:15:11.809Z,29.90
2019-04-30T09:15:59.370Z,30.80
2019-04-30T09:16:45.600Z,31.10
2019-04-30T09:17:31.696Z,30.40
2019-04-30T09:18:19.092Z,30.30
2019-04-30T09:19:05.059Z,30.30
2019-04-30T09:19:50.800Z,30.50
2019-04-30T09:20:36.855Z,30.70
2019-04-30T09:21:23.265Z,31.10
2019-04-30T09:22:15.030Z,30.80
2019-04-30T09:22:59.357Z,30.90
2019-04-30T09:23:51.906Z,31.00
2019-04-30T09:24:32.759Z,31.40
2019-04-30T09:25:19.546Z,31.40
2019-04-30T09:26:06.099Z,31.10
2019-04-30T09:26:52.235Z,30.90
2019-04-30T09:27:39.757Z,30.40
2019-04-30T09:28:25.837Z,30.20
2019-04-30T09:29:12.195Z,30.50
2019-04-30T09:29:58.806Z,30.60
2019-04-30T09:30:44.968Z,30.90
2019-04-30T09:31:31.231Z,30.60
2019-04-30T09:32:19.336Z,30.20
2019-04-30T09:33:05.568Z,30.70
2019-04-30T09:33:51.250Z,30.80
2019-04-30T09:34:38.464Z,31.20
2019-04-30T09:35:25.666Z,31.50
2019-04-30T09:36:11.820Z,31.70
2019-04-30T09:36:58.924Z,31.70
2019-04-30T09:37:45.135Z,31.70
2019-04-30T09:38:31.180Z,31.60
2019-04-30T09:39:19.491Z,31.30
2019-04-30T09:40:15.330Z,31.20
2019-04-30T09:40:53.465Z,31.60
2019-04-30T09:41:41.147Z,31.80
2019-04-30T09:42:29.464Z,31.60
2019-04-30T09:43:15.124Z,31.80
2019-04-30T09:44:01.362Z,31.60
2019-04-30T09:44:49.282Z,31.60
2019-04-30T09:45:35.221Z,31.60
2019-04-30T09:46:26.691Z,31.40
2019-04-30T09:47:09.681Z,31.30
2019-04-30T09:47:55.905Z,30.70
2019-04-30T09:48:42.072Z,30.90
2019-04-30T09:49:29.389Z,30.90
2019-04-30T09:50:15.583Z,30.60
2019-04-30T09:51:02.065Z,31.20
2019-04-30T09:51:49.503Z,31.50
2019-04-30T09:52:36.648Z,31.50
2019-04-30T09:53:23.497Z,31.70
2019-04-30T09:54:12.381Z,31.70
2019-04-30T09:54:59.255Z,31.80
2019-04-30T09:55:45.263Z,30.90
2019-04-30T09:56:31.247Z,29.00
2019-04-30T09:57:19.290Z,28.00
2019-04-30T09:58:16.690Z,27.10
2019-04-30T09:58:53.355Z,27.10
2019-04-30T09:59:39.626Z,27.00
2019-04-30T10:00:25.746Z,27.90
2019-04-30T10:01:12.151Z,26.90
2019-04-30T10:01:58.157Z,26.10
2019-04-30T10:02:43.827Z,25.70
2019-04-30T10:03:31.251Z,25.70
2019-04-30T10:04:19.793Z,26.40
2019-04-30T10:05:05.952Z,25.40
2019-04-30T10:05:51.887Z,24.90
2019-04-30T10:06:40.203Z,24.70
2019-04-30T10:07:26.203Z,24.30
2019-04-30T10:08:12.408Z,23.80
2019-04-30T10:08:59.627Z,24.30
2019-04-30T10:09:45.700Z,23.80
2019-04-30T10:10:36.553Z,23.60
2019-04-30T10:11:45.165Z,23.90
2019-04-30T10:12:31.035Z,24.10
2019-04-30T10:13:17.278Z,25.60
2019-04-30T10:14:03.822Z,26.40
2019-04-30T10:14:49.742Z,26.90
2019-04-30T10:15:56.175Z,27.20
2019-04-30T10:16:51.673Z,27.70
2019-04-30T10:17:41.737Z,27.30
2019-04-30T10:18:27.600Z,26.10
2019-04-30T10:19:15.055Z,25.40
2019-04-30T10:20:00.996Z,25.40